createdAt,value
2019-03-26T00:00:55.425Z,535.9
2019-03-26T00:01:57.630Z,535.8
2019-03-26T00:02:59.805Z,535.8
2019-03-26T00:05:07.005Z,535.2
2019-03-26T00:06:09.472Z,535.2
2019-03-26T00:07:11.679Z,535.2
2019-03-26T00:08:14.151Z,535.4
2019-03-26T00:09:16.623Z,535.6
2019-03-26T00:10:19.109Z,535.2
2019-03-26T00:11:21.590Z,535.7
2019-03-26T00:12:24.075Z,535.7
2019-03-26T00:13:25.721Z,535.7
2019-03-26T00:14:28.188Z,535.9
2019-03-26T00:15:30.672Z,536.3
2019-03-26T00:16:33.176Z,536
2019-03-26T00:17:35.356Z,536.4
2019-03-26T00:18:37.277Z,536.3
2019-03-26T00:19:39.765Z,536.3
2019-03-26T00:20:41.957Z,536
2019-03-26T00:21:44.446Z,536.3
2019-03-26T00:22:46.662Z,536.3
2019-03-26T00:23:48.879Z,536
2019-03-26T00:24:51.368Z,535.7
2019-03-26T00:25:53.844Z,535.6
2019-03-26T00:26:56.054Z,535.8
2019-03-26T00:27:58.521Z,535.8
2019-03-26T00:29:00.417Z,536
2019-03-26T00:30:02.062Z,535.9
2019-03-26T00:31:04.292Z,536
2019-03-26T00:32:06.784Z,535.6
2019-03-26T00:33:09.267Z,535.6
2019-03-26T00:35:16.750Z,535.7
2019-03-26T00:36:19.232Z,535.3
2019-03-26T00:37:21.726Z,535.6
2019-03-26T00:38:24.205Z,535.3
2019-03-26T00:39:26.725Z,535.7
2019-03-26T00:40:29.215Z,535.5
2019-03-26T00:41:31.702Z,536.3
2019-03-26T00:42:34.180Z,536.3
2019-03-26T00:43:35.836Z,536.5
2019-03-26T00:44:38.296Z,536.5
2019-03-26T00:45:40.779Z,536.3
2019-03-26T00:46:43.265Z,536.4
2019-03-26T00:47:45.755Z,536.8
2019-03-26T00:48:48.291Z,537.1
2019-03-26T00:49:50.764Z,537.2
2019-03-26T00:50:53.231Z,537
2019-03-26T00:51:55.705Z,536.9
2019-03-26T00:52:58.245Z,536.5
2019-03-26T00:54:00.447Z,536.3
2019-03-26T00:55:02.928Z,536.6
2019-03-26T00:56:05.395Z,536.6
2019-03-26T00:57:07.860Z,536.3
2019-03-26T00:58:10.324Z,536.5
2019-03-26T00:59:12.239Z,536.4
2019-03-26T01:00:14.447Z,536.7
2019-03-26T01:01:16.627Z,536.7
2019-03-26T01:02:18.861Z,536.3
2019-03-26T01:03:21.399Z,536.3
2019-03-26T01:05:28.646Z,536.3
2019-03-26T01:06:30.355Z,535.8
2019-03-26T01:07:32.524Z,536
2019-03-26T01:08:35.005Z,535.9
2019-03-26T01:09:37.214Z,535.9
2019-03-26T01:10:39.136Z,535.9
2019-03-26T01:11:41.334Z,536.2
2019-03-26T01:12:43.804Z,536
2019-03-26T01:13:46.289Z,536.1
2019-03-26T01:14:48.197Z,536.1
2019-03-26T01:15:50.424Z,536.2
2019-03-26T01:16:52.628Z,535.7
2019-03-26T01:17:54.556Z,535.8
2019-03-26T01:18:56.763Z,535.8
2019-03-26T01:19:59.235Z,535.5
2019-03-26T01:21:01.440Z,535.2
2019-03-26T01:22:03.634Z,534.3
2019-03-26T01:23:05.838Z,534.1
2019-03-26T01:24:08.317Z,534.1
2019-03-26T01:25:10.793Z,534
2019-03-26T01:26:13.266Z,533.7
2019-03-26T01:27:15.748Z,533.3
2019-03-26T01:28:18.213Z,533
2019-03-26T01:29:20.689Z,532.6
2019-03-26T01:30:22.897Z,532.4
2019-03-26T01:31:25.374Z,532.3
2019-03-26T01:32:27.840Z,531.8
2019-03-26T01:33:30.309Z,531.7
2019-03-26T01:35:38.571Z,531.4
2019-03-26T01:36:40.508Z,531.1
2019-03-26T01:37:42.983Z,531.6
2019-03-26T01:38:45.456Z,531.2
2019-03-26T01:39:47.939Z,531.4
2019-03-26T01:40:50.414Z,531.5
2019-03-26T01:41:52.905Z,531.6
2019-03-26T01:42:55.387Z,531.2
2019-03-26T01:43:57.857Z,531.5
2019-03-26T01:45:00.372Z,531.3
2019-03-26T01:46:02.575Z,531.2
2019-03-26T01:47:05.040Z,531.1
2019-03-26T01:48:07.206Z,530.7
2019-03-26T01:49:09.689Z,530.3
2019-03-26T01:50:11.887Z,530.3
2019-03-26T01:51:13.855Z,530.4
2019-03-26T01:52:16.326Z,530.5
2019-03-26T01:54:24.287Z,530.8
2019-03-26T01:55:26.492Z,530.9
2019-03-26T01:56:28.657Z,530.4
2019-03-26T01:57:30.856Z,530.2
2019-03-26T01:58:33.336Z,530.5
2019-03-26T01:59:35.814Z,530.1
2019-03-26T02:00:38.283Z,530.1
2019-03-26T02:01:40.198Z,530
2019-03-26T02:02:42.683Z,530
2019-03-26T02:03:45.157Z,530
2019-03-26T02:05:52.343Z,529.8
2019-03-26T02:06:54.819Z,529.6
2019-03-26T02:07:57.292Z,529.3
2019-03-26T02:08:59.220Z,529.9
2019-03-26T02:10:01.429Z,529.7
2019-03-26T02:11:03.602Z,529.9
2019-03-26T02:12:06.070Z,529.7
2019-03-26T02:13:08.544Z,529.7
2019-03-26T02:14:10.775Z,529.9
2019-03-26T02:15:12.699Z,529.8
2019-03-26T02:16:15.166Z,529.7
2019-03-26T02:17:17.376Z,529.3
2019-03-26T02:18:19.312Z,529.6
2019-03-26T02:19:21.512Z,529.1
2019-03-26T02:20:23.988Z,529.2
2019-03-26T02:21:26.209Z,528.9
2019-03-26T02:22:28.688Z,528.6
2019-03-26T02:23:30.608Z,528.3
2019-03-26T02:24:32.829Z,528.8
2019-03-26T02:25:35.397Z,528.3
2019-03-26T02:26:37.874Z,528.5
2019-03-26T02:27:40.435Z,528.2
2019-03-26T02:28:42.922Z,528.2
2019-03-26T02:29:45.392Z,528
2019-03-26T02:30:47.604Z,528
2019-03-26T02:31:50.094Z,528
2019-03-26T02:32:52.293Z,528.3
2019-03-26T02:33:54.766Z,528.5
2019-03-26T02:34:56.983Z,528.6
2019-03-26T02:35:59.446Z,528.9
2019-03-26T02:37:01.947Z,528.9
2019-03-26T02:38:04.468Z,529
2019-03-26T02:39:06.679Z,528.5
2019-03-26T02:40:09.019Z,528.7
2019-03-26T02:41:11.488Z,528.3
2019-03-26T02:42:13.992Z,528.1
2019-03-26T02:43:16.479Z,528.3
2019-03-26T02:44:18.958Z,528.4
2019-03-26T02:45:21.441Z,528.4
2019-03-26T02:46:23.650Z,528.4
2019-03-26T02:47:26.133Z,527.9
2019-03-26T02:48:28.594Z,528.1
2019-03-26T02:49:30.800Z,528.1
2019-03-26T02:50:32.995Z,527.9
2019-03-26T02:51:35.462Z,528.1
2019-03-26T02:52:37.663Z,527.7
2019-03-26T02:53:39.300Z,527.7
2019-03-26T02:54:41.504Z,527.4
2019-03-26T02:55:43.700Z,527.5
2019-03-26T02:56:46.177Z,527.6
2019-03-26T02:57:48.646Z,527.3
2019-03-26T02:58:51.114Z,527.3
2019-03-26T02:59:52.911Z,527.1
2019-03-26T03:00:55.112Z,527.6
2019-03-26T03:01:57.627Z,527.3
2019-03-26T03:02:59.819Z,527.4
2019-03-26T03:04:02.293Z,527.1
2019-03-26T03:05:04.785Z,527.2
2019-03-26T03:06:07.258Z,527
2019-03-26T03:07:09.185Z,526.7
2019-03-26T03:08:11.714Z,526.9
2019-03-26T03:09:14.185Z,526.5
2019-03-26T03:10:16.681Z,526.5
2019-03-26T03:11:18.609Z,526.4
2019-03-26T03:12:21.106Z,526.4
2019-03-26T03:13:23.031Z,526.4
2019-03-26T03:14:25.501Z,526.6
2019-03-26T03:15:27.984Z,526.3
2019-03-26T03:16:30.468Z,526.4
2019-03-26T03:17:32.939Z,526.5
2019-03-26T03:18:35.125Z,526.6
2019-03-26T03:19:37.308Z,526.4
2019-03-26T03:20:39.791Z,526
2019-03-26T03:21:42.374Z,526.1
2019-03-26T03:22:44.842Z,526.2
2019-03-26T03:23:47.315Z,525.6
2019-03-26T03:24:49.778Z,525.9
2019-03-26T03:25:52.279Z,526.1
2019-03-26T03:26:54.756Z,526
2019-03-26T03:27:57.234Z,526
2019-03-26T03:28:59.434Z,526.3
2019-03-26T03:30:02.020Z,526.1
2019-03-26T03:31:04.507Z,525.7
2019-03-26T03:32:06.724Z,526.3
2019-03-26T03:33:09.219Z,525.9
2019-03-26T03:34:11.715Z,525.5
2019-03-26T03:35:13.937Z,525.4
2019-03-26T03:36:16.425Z,525.1
2019-03-26T03:37:18.656Z,525.2
2019-03-26T03:38:20.859Z,525
2019-03-26T03:39:23.054Z,524.9
2019-03-26T03:40:25.294Z,525.1
2019-03-26T03:41:27.779Z,524.5
2019-03-26T03:42:30.252Z,524.6
2019-03-26T03:43:32.444Z,524.1
2019-03-26T03:44:34.638Z,524.4
2019-03-26T03:45:37.130Z,523.9
2019-03-26T03:46:39.333Z,524
2019-03-26T03:47:41.805Z,524.4
2019-03-26T03:48:44.301Z,524.1
2019-03-26T03:49:46.764Z,524.4
2019-03-26T03:50:49.238Z,524.2
2019-03-26T03:51:51.720Z,524.4
2019-03-26T03:52:54.199Z,523.8
2019-03-26T03:53:56.669Z,523.6
2019-03-26T03:54:59.144Z,523.9
2019-03-26T03:56:01.334Z,523.4
2019-03-26T03:57:03.809Z,523.7
2019-03-26T03:58:06.288Z,523.1
2019-03-26T03:59:08.765Z,523.2
2019-03-26T04:00:10.964Z,523.3
2019-03-26T04:01:13.180Z,523.2
2019-03-26T04:02:15.698Z,523.1
2019-03-26T04:03:17.336Z,523
2019-03-26T04:04:19.558Z,523
2019-03-26T04:05:22.048Z,522.5
2019-03-26T04:06:24.531Z,522.8
2019-03-26T04:07:27.007Z,522.4
2019-03-26T04:08:29.276Z,522.4
2019-03-26T04:09:31.751Z,522.5
2019-03-26T04:10:33.977Z,522.3
2019-03-26T04:11:36.450Z,522.6
2019-03-26T04:12:38.646Z,522
2019-03-26T04:13:41.114Z,522.4
2019-03-26T04:14:43.315Z,522
2019-03-26T04:15:45.534Z,521.4
2019-03-26T04:16:48.017Z,521.4
2019-03-26T04:17:50.494Z,521.4
2019-03-26T04:18:52.696Z,521.6
2019-03-26T04:19:55.189Z,521.6
2019-03-26T04:21:12.051Z,521.4
2019-03-26T04:22:14.254Z,521.4
2019-03-26T04:23:16.726Z,521.6
2019-03-26T04:24:19.203Z,521.4
2019-03-26T04:25:21.845Z,521.2
2019-03-26T04:26:23.753Z,521.1
2019-03-26T04:27:26.904Z,520.6
2019-03-26T04:28:29.444Z,520.9
2019-03-26T04:29:31.671Z,520.8
2019-03-26T04:30:34.165Z,520.5
2019-03-26T04:31:36.735Z,520.3
2019-03-26T04:32:38.976Z,520.1
2019-03-26T04:33:41.486Z,519.9
2019-03-26T04:34:43.985Z,520.1
2019-03-26T04:35:46.521Z,520.1
2019-03-26T04:36:49.039Z,519.8
2019-03-26T04:37:51.353Z,519.7
2019-03-26T04:38:53.825Z,519.4
2019-03-26T04:39:56.326Z,519.6
2019-03-26T04:40:58.555Z,519
2019-03-26T04:42:00.777Z,518.9
2019-03-26T04:43:02.979Z,519.5
2019-03-26T04:44:05.492Z,519.2
2019-03-26T04:45:07.982Z,519.3
2019-03-26T04:46:10.496Z,519.2
2019-03-26T04:47:13.010Z,519.1
2019-03-26T04:48:14.926Z,518.7
2019-03-26T04:49:17.405Z,518.5
2019-03-26T04:50:19.906Z,518.1
2019-03-26T04:51:22.373Z,518.1
2019-03-26T04:52:24.864Z,518.1
2019-03-26T04:53:26.753Z,518.1
2019-03-26T04:54:28.922Z,518
2019-03-26T04:55:31.399Z,518.1
2019-03-26T04:56:33.890Z,517.8
2019-03-26T04:57:36.348Z,517.5
2019-03-26T04:58:38.266Z,517.5
2019-03-26T04:59:40.740Z,517.7
2019-03-26T05:00:42.951Z,517.8
2019-03-26T05:01:45.113Z,517.9
2019-03-26T05:02:47.022Z,517.7
2019-03-26T05:03:49.224Z,517.3
2019-03-26T05:04:51.695Z,517.8
2019-03-26T05:05:53.895Z,517.5
2019-03-26T05:06:56.374Z,517.6
2019-03-26T05:07:58.592Z,517.2
2019-03-26T05:09:01.080Z,517.4
2019-03-26T05:10:03.284Z,516.9
2019-03-26T05:11:05.761Z,516.7
2019-03-26T05:12:08.216Z,516.5
2019-03-26T05:13:10.125Z,516.1
2019-03-26T05:14:12.319Z,516
2019-03-26T05:15:14.526Z,516.1
2019-03-26T05:16:16.737Z,516
2019-03-26T05:17:19.205Z,516.4
2019-03-26T05:18:21.790Z,516.1
2019-03-26T05:19:24.256Z,516.2
2019-03-26T05:20:26.730Z,516
2019-03-26T05:21:28.899Z,515.7
2019-03-26T05:22:31.363Z,515.5
2019-03-26T05:23:33.535Z,515.2
2019-03-26T05:24:35.998Z,515.4
2019-03-26T05:25:38.212Z,515.2
2019-03-26T05:26:40.424Z,515.3
2019-03-26T05:28:47.888Z,514.7
2019-03-26T05:29:50.363Z,514.6
2019-03-26T05:30:52.832Z,514.6
2019-03-26T05:31:55.045Z,514.4
2019-03-26T05:32:56.949Z,514.7
2019-03-26T05:33:59.424Z,514.8
2019-03-26T05:35:01.896Z,514.4
2019-03-26T05:36:04.377Z,514.5
2019-03-26T05:37:06.881Z,514.9
2019-03-26T05:38:09.065Z,514.7
2019-03-26T05:39:11.548Z,514.8
2019-03-26T05:40:14.026Z,514.4
2019-03-26T05:41:16.485Z,514.5
2019-03-26T05:42:18.979Z,514.5
2019-03-26T05:43:21.202Z,513.9
2019-03-26T05:44:23.668Z,514.1
2019-03-26T05:45:26.149Z,514.3
2019-03-26T05:46:28.635Z,513.6
2019-03-26T05:47:30.824Z,514.2
2019-03-26T05:48:33.297Z,513.9
2019-03-26T05:49:35.505Z,514.1
2019-03-26T05:50:37.733Z,513.3
2019-03-26T05:51:40.224Z,513.6
2019-03-26T05:52:42.429Z,513.8
2019-03-26T05:53:44.905Z,514
2019-03-26T05:54:47.442Z,513.8
2019-03-26T05:55:49.656Z,513.9
2019-03-26T05:56:51.863Z,513.4
2019-03-26T05:57:54.073Z,514
2019-03-26T05:58:56.277Z,513.6
2019-03-26T05:59:58.745Z,512.9
2019-03-26T06:01:01.224Z,513.3
2019-03-26T06:03:08.682Z,513.2
2019-03-26T06:04:10.890Z,513.3
2019-03-26T06:05:13.354Z,513.1
2019-03-26T06:06:15.574Z,513.4
2019-03-26T06:07:18.057Z,513.5
2019-03-26T06:08:20.535Z,513.5
2019-03-26T06:09:23.019Z,513.1
2019-03-26T06:10:25.483Z,512.7
2019-03-26T06:11:27.959Z,512.9
2019-03-26T06:12:30.180Z,512.4
2019-03-26T06:13:32.367Z,512.1
2019-03-26T06:14:34.574Z,512
2019-03-26T06:15:36.787Z,512.3
2019-03-26T06:16:40.691Z,512.2
2019-03-26T06:17:42.908Z,512.2
2019-03-26T06:18:45.384Z,511.9
2019-03-26T06:19:47.574Z,512.3
2019-03-26T06:20:49.776Z,512.4
2019-03-26T06:21:52.242Z,512.2
2019-03-26T06:22:54.711Z,512.2
2019-03-26T06:23:56.908Z,512.3
2019-03-26T06:24:59.380Z,511.8
2019-03-26T06:26:01.855Z,511.5
2019-03-26T06:27:04.330Z,511.8
2019-03-26T06:28:06.256Z,511.3
2019-03-26T06:29:08.466Z,511.7
2019-03-26T06:30:10.653Z,511.8
2019-03-26T06:31:12.856Z,511.6
2019-03-26T06:32:15.090Z,511.8
2019-03-26T06:33:17.590Z,511.7
2019-03-26T06:34:20.082Z,511.9
2019-03-26T06:35:22.561Z,511.4
2019-03-26T06:36:24.764Z,510.6
2019-03-26T06:37:27.249Z,511
2019-03-26T06:38:44.363Z,510.4
2019-03-26T06:39:46.005Z,510.4
2019-03-26T06:40:48.205Z,510.2
2019-03-26T06:41:50.402Z,510.1
2019-03-26T06:42:52.869Z,509.9
2019-03-26T06:43:55.355Z,510.1
2019-03-26T06:44:57.845Z,510.2
2019-03-26T06:46:00.329Z,509.7
2019-03-26T06:47:02.818Z,509.6
2019-03-26T06:48:06.534Z,510.2
2019-03-26T06:49:08.441Z,509.9
2019-03-26T06:50:10.923Z,510.1
2019-03-26T06:51:13.125Z,509.9
2019-03-26T06:52:15.603Z,509.9
2019-03-26T06:53:18.078Z,509.8
2019-03-26T06:54:20.306Z,509.8
2019-03-26T06:55:22.775Z,510.2
2019-03-26T06:56:24.956Z,510.7
2019-03-26T06:58:32.145Z,510.7
2019-03-26T06:59:34.319Z,510.7
2019-03-26T07:00:36.789Z,510.3
2019-03-26T07:01:39.265Z,510.1
2019-03-26T07:02:41.225Z,509.9
2019-03-26T07:03:43.433Z,509.9
2019-03-26T07:04:45.618Z,509.3
2019-03-26T07:05:48.098Z,509.2
2019-03-26T07:06:50.318Z,509.1
2019-03-26T07:07:52.523Z,508.7
2019-03-26T07:08:54.995Z,508.2
2019-03-26T07:09:57.201Z,508
2019-03-26T07:10:59.408Z,507.9
2019-03-26T07:12:01.892Z,508.1
2019-03-26T07:13:04.160Z,508
2019-03-26T07:14:06.626Z,507.9
2019-03-26T07:15:09.109Z,507.9
2019-03-26T07:16:11.591Z,507.6
2019-03-26T07:17:13.781Z,507.8
2019-03-26T07:18:15.971Z,507.8
2019-03-26T07:19:18.490Z,507.8
2019-03-26T07:20:20.975Z,507.7
2019-03-26T07:21:22.891Z,507.7
2019-03-26T07:22:25.371Z,507.4
2019-03-26T07:23:27.847Z,507.3
2019-03-26T07:24:30.334Z,507.5
2019-03-26T07:25:32.536Z,507.1
2019-03-26T07:26:35.076Z,507.4
2019-03-26T07:27:37.563Z,507
2019-03-26T07:28:39.768Z,507.1
2019-03-26T07:29:41.964Z,507.1
2019-03-26T07:30:44.435Z,506.9
2019-03-26T07:31:46.910Z,507.2
2019-03-26T07:32:49.077Z,507.4
2019-03-26T07:33:51.002Z,507.7
2019-03-26T07:34:53.480Z,507.9
2019-03-26T07:35:55.965Z,507.4
2019-03-26T07:36:58.448Z,507.4
2019-03-26T07:38:00.929Z,507.8
2019-03-26T07:39:02.834Z,507.6
2019-03-26T07:40:05.307Z,507.9
2019-03-26T07:41:07.513Z,507.6
2019-03-26T07:42:09.981Z,508
2019-03-26T07:43:12.153Z,508.1
2019-03-26T07:44:14.352Z,507.8
2019-03-26T07:45:16.830Z,507.7
2019-03-26T07:46:19.028Z,507.6
2019-03-26T07:47:20.932Z,507.1
2019-03-26T07:48:22.835Z,507
2019-03-26T07:49:25.302Z,507.2
2019-03-26T07:50:27.779Z,507
2019-03-26T07:51:30.301Z,506.7
2019-03-26T07:52:32.501Z,506.7
2019-03-26T07:53:34.987Z,506.7
2019-03-26T07:54:37.462Z,506.7
2019-03-26T07:55:43.616Z,506.8
2019-03-26T07:56:47.388Z,506.7
2019-03-26T07:57:49.870Z,506.8
2019-03-26T07:58:52.447Z,506.9
2019-03-26T07:59:54.928Z,506.8
2019-03-26T08:00:57.401Z,506.9
2019-03-26T08:01:59.900Z,506.3
2019-03-26T08:03:02.369Z,506
2019-03-26T08:04:04.855Z,506
2019-03-26T08:05:07.337Z,505.7
2019-03-26T08:06:09.828Z,505.7
2019-03-26T08:07:12.315Z,505.8
2019-03-26T08:08:14.506Z,505.6
2019-03-26T08:09:17.108Z,505.3
2019-03-26T08:10:19.578Z,505.4
2019-03-26T08:11:22.052Z,505.5
2019-03-26T08:12:23.982Z,505.5
2019-03-26T08:13:26.500Z,505.5
2019-03-26T08:14:29.098Z,506
2019-03-26T08:15:31.371Z,506
2019-03-26T08:16:33.925Z,506.3
2019-03-26T08:17:36.410Z,506.2
2019-03-26T08:18:38.885Z,506.5
2019-03-26T08:19:41.349Z,506.6
2019-03-26T08:20:43.527Z,506.6
2019-03-26T08:21:45.726Z,506.7
2019-03-26T08:22:48.302Z,506.6
2019-03-26T08:23:50.796Z,507
2019-03-26T08:24:53.286Z,507
2019-03-26T08:25:55.762Z,507
2019-03-26T08:26:57.694Z,507.3
2019-03-26T08:28:00.159Z,507.1
2019-03-26T08:29:02.814Z,507
2019-03-26T08:30:05.295Z,507
2019-03-26T08:31:07.470Z,506.8
2019-03-26T08:32:09.662Z,506.6
2019-03-26T08:33:11.868Z,506.7
2019-03-26T08:34:13.772Z,507
2019-03-26T08:35:16.240Z,506.7
2019-03-26T08:36:18.466Z,506.6
2019-03-26T08:37:20.938Z,506.4
2019-03-26T08:38:23.146Z,506.4
2019-03-26T08:39:25.385Z,506.4
2019-03-26T08:40:27.863Z,506.1
2019-03-26T08:41:30.065Z,506.2
2019-03-26T08:42:32.272Z,506.2
2019-03-26T08:43:34.505Z,506.2
2019-03-26T08:44:36.444Z,506.1
2019-03-26T08:45:38.914Z,505.6
2019-03-26T08:46:41.075Z,505.4
2019-03-26T08:47:43.545Z,505.4
2019-03-26T08:48:45.743Z,505.8
2019-03-26T08:49:48.266Z,505.7
2019-03-26T08:50:50.764Z,505.6
2019-03-26T08:51:52.954Z,505.3
2019-03-26T08:52:55.409Z,505.3
2019-03-26T08:53:57.872Z,505.4
2019-03-26T08:55:00.383Z,505.2
2019-03-26T08:56:02.603Z,504.9
2019-03-26T08:57:04.800Z,504.9
2019-03-26T08:58:07.288Z,505
2019-03-26T08:59:09.482Z,504.5
2019-03-26T09:00:11.965Z,504.6
2019-03-26T09:01:14.429Z,504.3
2019-03-26T09:02:16.901Z,504.5
2019-03-26T09:03:19.380Z,504.5
2019-03-26T09:04:21.850Z,504.6
2019-03-26T09:05:24.314Z,504.8
2019-03-26T09:06:26.797Z,505.1
2019-03-26T09:07:29.022Z,504.7
2019-03-26T09:08:31.491Z,504.9
2019-03-26T09:09:33.960Z,504.8
2019-03-26T09:10:36.443Z,504.6
2019-03-26T09:11:38.915Z,504.4
2019-03-26T09:12:41.755Z,504.4
2019-03-26T09:13:43.692Z,504.3
2019-03-26T09:14:46.162Z,503.9
2019-03-26T09:15:48.640Z,504.5
2019-03-26T09:16:51.112Z,504.3
2019-03-26T09:17:53.288Z,504.1
2019-03-26T09:18:55.752Z,504.4
2019-03-26T09:19:57.658Z,504.5
2019-03-26T09:20:59.579Z,504.2
2019-03-26T09:22:01.794Z,504.7
2019-03-26T09:23:04.262Z,504.4
2019-03-26T09:24:06.738Z,504.1
2019-03-26T09:25:08.954Z,504.1
2019-03-26T09:26:11.164Z,504.3
2019-03-26T09:27:13.638Z,504.4
2019-03-26T09:28:16.106Z,504.1
2019-03-26T09:29:18.576Z,503.8
2019-03-26T09:30:21.058Z,504.1
2019-03-26T09:31:23.545Z,503.7
2019-03-26T09:32:26.023Z,503.4
2019-03-26T09:33:27.926Z,503.7
2019-03-26T09:34:30.395Z,503.6
2019-03-26T09:35:32.889Z,504.2
2019-03-26T09:36:35.373Z,504.2
2019-03-26T09:37:37.550Z,504.1
2019-03-26T09:38:41.160Z,504.1
2019-03-26T09:39:43.338Z,503.8
2019-03-26T09:40:45.811Z,503.9
2019-03-26T09:41:48.026Z,504.3
2019-03-26T09:42:50.531Z,503.9
2019-03-26T09:43:53.037Z,504
2019-03-26T09:46:00.545Z,503.9
2019-03-26T09:48:08.239Z,503.9
2019-03-26T09:49:10.456Z,503.8
2019-03-26T09:50:12.941Z,503.3
2019-03-26T09:51:15.419Z,503.2
2019-03-26T09:52:17.636Z,503
2019-03-26T09:53:20.104Z,503.3
2019-03-26T09:54:22.311Z,503.4
2019-03-26T09:55:24.796Z,503.4
2019-03-26T09:57:32.295Z,503.1
2019-03-26T09:58:34.509Z,503.4
2019-03-26T09:59:36.984Z,503.2
2019-03-26T10:00:39.882Z,503.5
2019-03-26T10:01:42.394Z,503.2
2019-03-26T10:02:45.602Z,502.9
2019-03-26T10:03:48.098Z,503.6
2019-03-26T10:04:50.601Z,503.1
2019-03-26T10:05:52.511Z,502.6
2019-03-26T10:06:54.992Z,503.3
2019-03-26T10:07:57.195Z,503.2
2019-03-26T10:08:59.139Z,503.3
2019-03-26T10:10:01.538Z,502.8
2019-03-26T10:11:03.775Z,503.2
2019-03-26T10:12:06.273Z,503.2
2019-03-26T10:13:08.749Z,503.7
2019-03-26T10:14:10.965Z,503.9
2019-03-26T10:15:13.155Z,503.9
2019-03-26T10:16:15.356Z,504.1
2019-03-26T10:17:17.847Z,503.6
2019-03-26T10:18:20.034Z,503.6
2019-03-26T10:19:22.232Z,503.4
2019-03-26T10:20:24.711Z,503.3
2019-03-26T10:21:26.649Z,503.2
2019-03-26T10:22:29.185Z,503.3
2019-03-26T10:23:31.415Z,503.2
2019-03-26T10:24:33.918Z,503.6
2019-03-26T10:25:36.436Z,503.6
2019-03-26T10:26:38.918Z,503.8
2019-03-26T10:27:41.512Z,504
2019-03-26T10:28:43.695Z,503.6
2019-03-26T10:29:46.174Z,504
2019-03-26T10:30:48.367Z,504.1
2019-03-26T10:31:50.846Z,503.8
2019-03-26T10:32:53.042Z,504.6
2019-03-26T10:33:55.519Z,504.2
2019-03-26T10:34:57.998Z,504.4
2019-03-26T10:36:00.215Z,504.3
2019-03-26T10:37:02.456Z,504.4
2019-03-26T10:38:04.930Z,504.8
2019-03-26T10:39:07.700Z,504.6
2019-03-26T10:40:10.175Z,504.8
2019-03-26T10:41:12.660Z,504.6
2019-03-26T10:42:15.143Z,504.4
2019-03-26T10:43:17.331Z,504.8
2019-03-26T10:44:18.975Z,504.9
2019-03-26T10:45:21.446Z,504.8
2019-03-26T10:46:23.655Z,504.9
2019-03-26T10:47:26.138Z,504.6
2019-03-26T10:48:28.715Z,504.6
2019-03-26T10:49:33.087Z,504.5
2019-03-26T10:50:35.294Z,504.8
2019-03-26T10:51:37.503Z,505.2
2019-03-26T10:52:39.980Z,505.3
2019-03-26T10:53:41.890Z,505.6
2019-03-26T10:54:44.467Z,505.1
2019-03-26T10:55:46.941Z,505.7
2019-03-26T10:56:49.414Z,505.7
2019-03-26T10:57:51.890Z,505.5
2019-03-26T10:58:54.450Z,505.9
2019-03-26T10:59:56.665Z,506.1
2019-03-26T11:00:59.154Z,506.3
2019-03-26T11:02:02.111Z,506.3
2019-03-26T11:03:04.596Z,506.2
2019-03-26T11:05:11.926Z,506.3
2019-03-26T11:06:14.255Z,506.8
2019-03-26T11:07:16.490Z,506.5
2019-03-26T11:08:18.714Z,506.5
2019-03-26T11:10:25.888Z,506.5
2019-03-26T11:11:28.354Z,506.3
2019-03-26T11:12:30.270Z,505.9
2019-03-26T11:13:32.478Z,505.8
2019-03-26T11:14:34.951Z,506.1
2019-03-26T11:15:37.417Z,505.8
2019-03-26T11:16:39.616Z,505.8
2019-03-26T11:17:42.091Z,505.9
2019-03-26T11:18:44.565Z,505.9
2019-03-26T11:19:48.594Z,506.2
2019-03-26T11:21:55.794Z,506.4
2019-03-26T11:22:58.295Z,506.3
2019-03-26T11:24:00.515Z,506
2019-03-26T11:25:02.998Z,506.5
2019-03-26T11:26:05.490Z,506.1
2019-03-26T11:27:07.977Z,506.2
2019-03-26T11:28:10.447Z,506.1
2019-03-26T11:29:12.925Z,506
2019-03-26T11:30:15.407Z,506.1
2019-03-26T11:31:17.625Z,505.9
2019-03-26T11:32:20.116Z,505.7
2019-03-26T11:33:22.603Z,505.4
2019-03-26T11:34:25.171Z,506
2019-03-26T11:35:27.646Z,506
2019-03-26T11:36:30.117Z,505.5
2019-03-26T11:37:32.638Z,506
2019-03-26T11:38:35.161Z,505.7
2019-03-26T11:39:37.632Z,506.1
2019-03-26T11:40:39.831Z,506.4
2019-03-26T11:41:42.300Z,505.9
2019-03-26T11:42:44.774Z,506.4
2019-03-26T11:43:47.257Z,506.2
2019-03-26T11:44:49.735Z,506.6
2019-03-26T11:45:51.915Z,506.6
2019-03-26T11:46:54.413Z,506.7
2019-03-26T11:47:56.683Z,506.9
2019-03-26T11:48:59.166Z,507
2019-03-26T11:51:08.276Z,506.6
2019-03-26T11:52:10.745Z,506.7
2019-03-26T11:53:13.227Z,506.7
2019-03-26T11:54:15.428Z,506.8
2019-03-26T11:55:17.634Z,506.8
2019-03-26T11:56:20.124Z,507.1
2019-03-26T11:57:22.606Z,507.2
2019-03-26T11:59:29.797Z,507
2019-03-26T12:00:32.269Z,506.6
2019-03-26T12:01:34.738Z,506.6
2019-03-26T12:02:37.863Z,506.6
2019-03-26T12:03:40.346Z,506.2
2019-03-26T12:04:42.270Z,506.6
2019-03-26T12:05:44.764Z,506.5
2019-03-26T12:06:46.984Z,506.6
2019-03-26T12:07:49.156Z,506.8
2019-03-26T12:08:51.350Z,506.5
2019-03-26T12:09:53.814Z,506.8
2019-03-26T12:10:56.295Z,506.6
2019-03-26T12:11:58.773Z,506.4
2019-03-26T12:13:01.267Z,506.8
2019-03-26T12:14:03.489Z,507.2
2019-03-26T12:15:05.974Z,507
2019-03-26T12:16:08.451Z,506.7
2019-03-26T12:17:10.368Z,506.9
2019-03-26T12:18:12.554Z,506.9
2019-03-26T12:19:14.488Z,506.5
2019-03-26T12:20:16.700Z,506.8
2019-03-26T12:21:19.177Z,507
2019-03-26T12:22:21.653Z,507
2019-03-26T12:23:24.114Z,506.7
2019-03-26T12:24:26.332Z,506.7
2019-03-26T12:25:28.803Z,506.9
2019-03-26T12:26:31.289Z,507.1
2019-03-26T12:28:39.953Z,507.4
2019-03-26T12:29:42.434Z,507.3
2019-03-26T12:30:44.903Z,507.4
2019-03-26T12:31:47.383Z,507.2
2019-03-26T12:32:49.589Z,507.6
2019-03-26T12:33:52.063Z,507.2
2019-03-26T12:34:54.270Z,507.3
2019-03-26T12:35:56.729Z,507.5
2019-03-26T12:36:58.939Z,507.7
2019-03-26T12:38:01.422Z,508.1
2019-03-26T12:39:03.905Z,507.7
2019-03-26T12:40:06.386Z,507.7
2019-03-26T12:41:08.858Z,507.5
2019-03-26T12:42:11.064Z,508.1
2019-03-26T12:43:13.004Z,508.1
2019-03-26T12:44:14.955Z,508.1
2019-03-26T12:45:17.157Z,507.6
2019-03-26T12:46:19.640Z,507.8
2019-03-26T12:47:21.855Z,508.4
2019-03-26T12:48:24.055Z,508.4
2019-03-26T12:49:26.256Z,508.4
2019-03-26T12:50:28.168Z,507.8
2019-03-26T12:51:30.648Z,508.2
2019-03-26T12:52:32.597Z,508
2019-03-26T12:53:35.059Z,507.6
2019-03-26T12:54:37.548Z,508.2
2019-03-26T12:55:40.022Z,508
2019-03-26T12:56:42.491Z,508.1
2019-03-26T12:57:44.701Z,508.1
2019-03-26T12:58:47.183Z,507.9
2019-03-26T12:59:49.656Z,508.4
2019-03-26T13:00:51.852Z,508.5
2019-03-26T13:01:54.333Z,508.9
2019-03-26T13:02:56.519Z,508.5
2019-03-26T13:05:05.536Z,508.6
2019-03-26T13:06:07.763Z,508.4
2019-03-26T13:07:10.022Z,508.5
2019-03-26T13:08:12.524Z,508.2
2019-03-26T13:09:15.006Z,508.6
2019-03-26T13:10:17.484Z,509
2019-03-26T13:11:19.961Z,509
2019-03-26T13:12:22.140Z,508.3
2019-03-26T13:13:24.605Z,508.4
2019-03-26T13:14:26.823Z,508.4
2019-03-26T13:15:29.307Z,508.6
2019-03-26T13:16:31.773Z,508.5
2019-03-26T13:17:34.320Z,508.4
2019-03-26T13:18:36.776Z,509
2019-03-26T13:19:39.264Z,508.7
2019-03-26T13:20:41.455Z,508.6
2019-03-26T13:21:43.671Z,509
2019-03-26T13:22:46.153Z,509.2
2019-03-26T13:23:48.618Z,509.1
2019-03-26T13:24:50.828Z,509.3
2019-03-26T13:25:53.453Z,508.8
2019-03-26T13:26:55.930Z,509.1
2019-03-26T13:27:58.137Z,509.4
2019-03-26T13:29:00.306Z,509.7
2019-03-26T13:30:02.510Z,510.1
2019-03-26T13:31:04.992Z,509.8
2019-03-26T13:32:07.203Z,509.5
2019-03-26T13:33:09.676Z,509.8
2019-03-26T13:34:12.156Z,509.7
2019-03-26T13:35:14.352Z,509.8
2019-03-26T13:36:16.835Z,509.5
2019-03-26T13:38:25.277Z,510.3
2019-03-26T13:39:27.494Z,510
2019-03-26T13:40:30.021Z,510.2
2019-03-26T13:41:32.505Z,510.3
2019-03-26T13:42:34.982Z,510.3
2019-03-26T13:43:37.160Z,510.7
2019-03-26T13:44:39.646Z,510.7
2019-03-26T13:45:42.122Z,510.4
2019-03-26T13:46:44.320Z,511.4
2019-03-26T13:47:46.518Z,510.9
2019-03-26T13:48:48.992Z,511.6
2019-03-26T13:49:51.187Z,510.8
2019-03-26T13:50:53.682Z,511